Terminal Aerodrome Forecast
Issued by NWS

Home | Current Version | Previous Version | Text Only | Print | Product List | Glossary On
Versions: 1 2 3 4 5 6 7 8 9 10 11 12 13
000
FTUS45 KGJT 261120
TAFVEL
TAF
KVEL 261120Z 2612/2712 26005KT P6SM SCT200
     FM261700 05005KT P6SM SCT250
     FM262100 34008KT P6SM SCT200
     FM271100 33004KT P6SM SCT150=

USA.gov is the U.S. government's official web portal to all federal, state and local government web resources and services.